Latest Weather Observations for Hopetoun North

IDW60801

Issued at 7:05 am WST Thursday 31 July 2014 (issued every 30 minutes, with the page automatically refreshed every 10 minutes)

About weather observations | Map of weather stations | Latest weather observations for WA | Other Formats
Station Details ID: 009961 Name: HOPETOUN NORTH Lat: -33.93 Lon: 120.13 Height: 26.0 m
Data from the previous 72 hours. | See also: Recent months at Hopetoun North
Date/Time
WST
Temp
°C
App
Temp
°C
Dew
Point
Rel
Hum
%
Delta-T
°C
Wind Press
QNH
hPa
Press
MSL
hPa
Rain
since 9 am
mm
Dir
 
Spd
km/h
Gust
km/h
Spd
kts
Gust
kts
31/07:02am 9.4 0.8 4.4 71 2.2 SSW 39 57 21 31 1022.2 - 0.6
31/07:00am 9.3 0.3 4.7 73 2.0 SSW 41 57 22 31 1022.2 1022.2 0.6
31/06:34am 8.8 1.1 5.2 78 1.6 SW 35 56 19 30 1021.8 - 0.6
31/06:30am 8.6 0.2 5.7 82 1.3 SW 39 56 21 30 1021.9 - 0.6
31/06:10am 9.0 1.2 6.6 85 1.1 SW 37 57 20 31 1021.5 - 0.4
31/06:00am 8.7 0.7 7.3 91 0.7 SSW 39 52 21 28 1021.3 1021.3 0.4
31/05:56am 8.4 0.9 7.8 96 0.3 SW 37 50 20 27 1021.3 - 0.4
31/05:30am 7.9 1.2 7.5 97 0.2 W 32 52 17 28 1021.0 - 0.4
31/05:23am 7.6 1.6 7.2 97 0.2 WSW 28 46 15 25 1020.9 - 0.4
31/05:00am 8.5 1.6 6.6 88 0.9 WSW 32 46 17 25 1020.5 1020.5 0.0
31/04:35am 9.5 2.7 5.1 74 2.0 WSW 30 50 16 27 1020.3 - 0.0
31/04:30am 9.7 2.3 4.9 72 2.2 WSW 33 50 18 27 1020.3 - 0.0
31/04:02am 10.6 3.1 3.6 62 3.1 WSW 32 52 17 28 1020.0 - 0.0
31/04:00am 10.6 3.1 3.6 62 3.1 WSW 32 46 17 25 1020.0 1020.0 0.0
31/03:30am 10.1 2.6 3.6 64 2.8 WSW 32 46 17 25 1019.8 - 0.0
31/03:00am 10.3 3.3 4.2 66 2.7 WSW 30 52 16 28 1019.6 1019.6 0.0
31/02:49am 10.3 3.4 4.5 67 2.6 WSW 30 48 16 26 1019.4 - 0.0
31/02:30am 10.3 2.9 4.9 69 2.4 WSW 33 50 18 27 1019.3 - 0.0
31/02:00am 10.3 1.2 3.8 64 2.9 WSW 41 63 22 34 1019.0 1019.0 0.0
31/01:30am 10.6 1.6 4.7 67 2.7 WSW 41 65 22 35 1018.9 - 0.0
31/01:00am 10.6 2.0 6.6 76 1.9 WSW 41 67 22 36 1018.5 1018.5 0.0
31/12:30am 10.2 2.4 8.3 88 0.9 WSW 39 63 21 34 1018.1 - 0.0
31/12:15am 9.9 3.2 9.8 99 0.1 WSW 35 56 19 30 1017.9 - 0.0
31/12:00am 9.6 1.4 9.6 100 0.0 WSW 43 57 23 31 1017.9 1017.9 0.0
 
Date/Time
WST
Temp
°C
App
Temp
°C
Dew
Point
Rel
Hum
%
Delta-T
°C
Wind Press
QNH
hPa
Press
MSL
hPa
Rain
since 9 am
mm
Dir
 
Spd
km/h
Gust
km/h
Spd
kts
Gust
kts
30/11:54pm 10.2 2.8 9.7 97 0.3 SW 39 56 21 30 1017.9 - 0.0
30/11:30pm 11.2 4.6 7.7 79 1.7 W 32 52 17 28 1017.8 - 0.0
30/11:24pm 11.2 4.9 7.3 77 1.9 W 30 52 16 28 1017.7 - 0.0
30/11:00pm 11.2 4.9 7.5 78 1.8 W 30 44 16 24 1017.4 1017.4 0.0
30/10:36pm 11.1 5.2 7.6 79 1.7 W 28 48 15 26 1017.2 - 0.0
30/10:30pm 11.1 4.8 7.6 79 1.7 W 30 46 16 25 1017.1 - 0.0
30/10:00pm 11.4 5.5 7.3 76 2.0 W 28 43 15 23 1017.0 1017.0 0.0
30/09:34pm 11.9 5.6 7.4 74 2.2 W 30 56 16 30 1016.8 - 0.0
30/09:30pm 11.9 5.9 7.2 73 2.3 W 28 41 15 22 1016.8 - 0.0
30/09:00pm 11.8 7.5 7.1 73 2.3 W 19 32 10 17 1016.5 1016.5 0.0
30/08:30pm 12.3 7.8 7.0 70 2.5 W 20 32 11 17 1016.1 - 0.0
30/08:00pm 13.5 8.7 7.3 66 3.0 W 22 33 12 18 1016.5 1016.5 0.0
30/07:30pm 13.1 8.8 6.9 66 3.0 WNW 19 30 10 16 1016.2 - 0.0
30/07:00pm 13.3 9.3 6.6 64 3.2 WNW 17 28 9 15 1016.2 1016.2 0.0
30/06:30pm 13.8 9.9 6.9 63 3.3 WNW 17 30 9 16 1016.1 - 0.0
30/06:00pm 14.0 10.4 6.8 62 3.5 NW 15 30 8 16 1015.8 1015.8 0.0
30/05:30pm 14.8 10.5 6.9 59 3.9 WNW 19 33 10 18 1015.7 - 0.0
30/05:00pm 15.5 10.2 6.8 56 4.3 WNW 24 35 13 19 1015.2 1015.3 0.0
30/04:30pm 16.3 10.7 7.0 54 4.6 W 26 37 14 20 1015.0 - 0.0
30/04:00pm 16.4 11.3 7.6 56 4.4 W 24 33 13 18 1014.9 1015.0 0.0
30/03:30pm 16.5 11.3 7.2 54 4.6 WNW 24 39 13 21 1014.9 - 0.0
30/03:00pm 16.2 11.0 7.4 56 4.4 W 24 41 13 22 1014.8 1014.9 0.0
30/02:30pm 15.8 10.1 6.8 55 4.4 WNW 26 39 14 21 1014.8 - 0.0
30/02:00pm 17.2 11.3 7.5 53 4.9 WNW 28 46 15 25 1014.7 1014.8 0.0
30/01:57pm 17.6 11.7 7.6 52 5.1 WNW 28 46 15 25 1014.7 - 0.0
30/01:30pm 16.8 10.5 7.4 54 4.7 WNW 30 44 16 24 1015.0 - 0.0
30/01:00pm 16.0 10.0 7.0 55 4.4 WNW 28 44 15 24 1015.6 1015.6 0.0
30/12:30pm 16.8 11.0 8.0 56 4.5 W 28 44 15 24 1016.1 - 0.0
30/12:00pm 14.9 9.0 7.5 61 3.7 W 28 43 15 23 1016.5 1016.5 0.0
30/11:54am 14.9 9.0 7.5 61 3.7 W 28 48 15 26 1016.6 - 0.0
30/11:30am 14.7 7.9 7.5 62 3.6 W 33 43 18 23 1016.9 - 0.0
30/11:00am 14.8 8.9 7.4 61 3.6 W 28 41 15 22 1017.2 1017.2 0.0
30/10:30am 14.4 8.1 7.2 62 3.5 WNW 30 46 16 25 1017.6 - 0.0
30/10:00am 14.4 8.1 7.5 63 3.4 W 30 44 16 24 1017.8 1017.8 0.0
30/09:30am 13.8 9.5 8.0 68 2.9 W 20 41 11 22 1018.0 - 0.0
30/09:00am 12.7 9.1 8.4 75 2.1 WNW 17 28 9 15 1018.1 1018.1 0.0
30/08:30am 12.3 9.8 8.4 77 1.9 WNW 11 24 6 13 1018.3 - 0.0
30/08:00am 11.8 8.6 8.3 79 1.7 WNW 15 28 8 15 1018.2 1018.2 0.0
30/07:30am 11.2 7.6 8.4 83 1.4 WNW 17 24 9 13 1018.3 - 0.0
30/07:00am 10.8 7.3 8.7 87 1.0 WNW 17 28 9 15 1018.2 1018.2 0.0
30/06:30am 10.7 7.1 8.3 85 1.2 WNW 17 24 9 13 1018.1 - 0.0
30/06:00am 11.1 8.0 8.7 85 1.2 WNW 15 22 8 12 1018.1 1018.1 0.0
30/05:30am 11.2 7.7 8.6 84 1.3 NW 17 28 9 15 1017.9 - 0.0
30/05:00am 11.1 8.1 9.4 89 0.9 NW 15 22 8 12 1017.8 1017.8 0.0
30/04:30am 10.9 8.0 9.5 91 0.7 NW 15 24 8 13 1017.9 - 0.0
30/04:00am 11.2 7.5 9.5 89 0.9 WNW 19 28 10 15 1018.0 1018.0 0.0
30/03:30am 11.1 7.8 9.5 90 0.8 WNW 17 26 9 14 1018.2 - 0.0
30/03:00am 10.8 7.9 9.6 92 0.6 WNW 15 20 8 11 1018.5 1018.5 0.0
30/02:30am 10.6 7.7 9.5 93 0.6 NW 15 22 8 12 1018.7 - 0.0
30/02:00am 10.2 7.5 9.1 93 0.5 NW 13 20 7 11 1018.8 1018.8 0.0
30/01:30am 10.4 6.5 9.5 94 0.5 NW 20 30 11 16 1019.0 - 0.0
30/01:00am 10.4 5.6 9.0 91 0.7 WNW 24 37 13 20 1019.5 1019.5 0.0
30/12:30am 10.6 6.8 9.2 91 0.7 W 19 26 10 14 1019.2 - 0.0
30/12:00am 10.3 7.2 8.9 91 0.7 WNW 15 20 8 11 1019.2 1019.2 0.0
 
Date/Time
WST
Temp
°C
App
Temp
°C
Dew
Point
Rel
Hum
%
Delta-T
°C
Wind Press
QNH
hPa
Press
MSL
hPa
Rain
since 9 am
mm
Dir
 
Spd
km/h
Gust
km/h
Spd
kts
Gust
kts
29/11:30pm 10.0 6.6 7.8 86 1.1 NW 15 20 8 11 1019.4 - 0.0
29/11:00pm 11.5 8.9 7.8 78 1.8 NW 11 17 6 9 1019.6 1019.6 0.0
29/10:30pm 11.7 9.0 7.4 75 2.1 NW 11 19 6 10 1019.8 - 0.0
29/10:00pm 11.8 9.0 7.1 73 2.2 NW 11 19 6 10 1019.9 1019.9 0.0
29/09:30pm 12.4 9.6 6.9 69 2.6 NW 11 20 6 11 1019.9 - 0.0
29/09:00pm 12.9 10.4 6.7 66 3.0 WNW 9 15 5 8 1020.1 1020.1 0.0
29/08:30pm 13.6 10.9 7.2 65 3.1 WNW 11 17 6 9 1020.1 - 0.0
29/08:00pm 14.0 10.5 7.1 63 3.4 WNW 15 22 8 12 1020.2 1020.2 0.0
29/07:30pm 14.4 11.4 7.5 63 3.4 NW 13 20 7 11 1020.1 - 0.0
29/07:00pm 14.3 10.8 7.1 62 3.5 NW 15 26 8 14 1020.1 1020.1 0.0
29/06:30pm 14.6 10.7 6.9 60 3.8 NW 17 28 9 15 1019.8 - 0.0
29/06:00pm 14.5 11.0 7.3 62 3.5 WNW 15 24 8 13 1019.6 1019.6 0.0
29/05:30pm 14.5 11.8 7.3 62 3.5 W 11 17 6 9 1019.4 - 0.0
29/05:00pm 14.9 11.1 7.5 61 3.7 W 17 26 9 14 1019.2 1019.2 0.0
29/04:30pm 15.4 12.4 7.7 60 3.8 WNW 13 19 7 10 1019.1 - 0.0
29/04:00pm 16.0 12.6 7.7 58 4.1 W 15 24 8 13 1019.0 1019.0 0.0
29/03:30pm 16.6 12.4 7.3 54 4.6 WNW 19 28 10 15 1019.0 - 0.0
29/03:00pm 18.2 14.6 8.2 52 5.1 WNW 17 30 9 16 1018.8 1018.8 0.0
29/02:30pm 17.2 13.2 8.1 55 4.6 WNW 19 32 10 17 1018.7 - 0.0
29/02:00pm 17.4 13.3 7.7 53 4.9 W 19 28 10 15 1018.9 1018.9 0.0
29/01:30pm 17.3 13.1 8.2 55 4.6 W 20 30 11 16 1019.1 - 0.0
29/01:00pm 17.2 12.9 7.8 54 4.7 W 20 30 11 16 1019.3 1019.3 0.0
29/12:30pm 16.8 12.9 8.5 58 4.2 W 19 28 10 15 1019.6 - 0.0
29/12:00pm 15.9 10.8 7.7 58 4.1 W 24 35 13 19 1020.2 1020.2 0.0
29/11:30am 15.8 11.3 8.5 62 3.7 W 22 30 12 16 1020.5 - 0.0
29/11:00am 15.7 10.9 8.7 63 3.6 W 24 32 13 17 1020.7 1020.7 0.0
29/10:30am 15.2 10.4 8.9 66 3.2 W 24 33 13 18 1021.0 - 0.0
29/10:00am 14.4 10.7 10.2 76 2.2 W 20 30 11 16 1021.2 1021.2 0.0
29/09:30am 13.5 10.0 10.3 81 1.7 WNW 19 28 10 15 1021.3 - 0.0
29/09:00am 12.6 9.2 10.5 87 1.1 WNW 19 28 10 15 1021.1 1021.1 0.0
29/08:30am 11.7 9.4 10.4 92 0.7 WNW 13 20 7 11 1021.0 - 0.0
29/08:00am 10.3 9.2 10.1 99 0.1 N 6 9 3 5 1020.7 1020.7 0.0
29/07:30am 9.4 7.6 9.4 100 0.0 NW 9 17 5 9 1020.5 - 0.0
29/07:00am 9.5 6.9 9.5 100 0.0 WNW 13 19 7 10 1020.3 1020.3 0.0
29/06:30am 9.1 6.4 9.1 100 0.0 W 13 19 7 10 1020.1 - 0.0
29/06:00am 9.0 6.7 9.0 100 0.0 W 11 17 6 9 1020.1 1020.1 0.0
29/05:30am 9.4 6.4 9.4 100 0.0 W 15 22 8 12 1019.7 - 0.0
29/05:00am 9.5 6.2 9.5 100 0.0 WNW 17 26 9 14 1019.3 1019.3 0.0
29/04:30am 9.3 5.4 9.3 100 0.0 WNW 20 32 11 17 1019.1 - 0.0
29/04:00am 9.6 5.9 9.6 100 0.0 WNW 19 24 10 13 1019.3 1019.3 0.0
29/03:30am 9.5 6.9 9.5 100 0.0 W 13 20 7 11 1019.4 - 0.0
29/03:00am 9.6 5.9 9.6 100 0.0 W 19 26 10 14 1019.1 1019.1 0.0
29/02:30am 9.9 6.6 9.6 98 0.1 WNW 17 28 9 15 1018.7 - 0.0
29/02:00am 10.3 7.1 9.8 97 0.3 WNW 17 26 9 14 1018.5 1018.5 0.0
29/01:30am 10.1 6.8 9.6 97 0.3 WNW 17 24 9 13 1018.8 - 0.0
29/01:00am 9.9 6.9 9.4 97 0.2 WNW 15 26 8 14 1018.9 1018.9 0.0
29/12:30am 9.9 6.6 9.4 97 0.2 WNW 17 24 9 13 1018.8 - 0.0
29/12:00am 10.3 6.6 9.4 94 0.4 WNW 19 24 10 13 1018.8 1018.8 0.0
 
Date/Time
WST
Temp
°C
App
Temp
°C
Dew
Point
Rel
Hum
%
Delta-T
°C
Wind Press
QNH
hPa
Press
MSL
hPa
Rain
since 9 am
mm
Dir
 
Spd
km/h
Gust
km/h
Spd
kts
Gust
kts
28/11:30pm 10.6 6.7 9.4 92 0.6 WNW 20 30 11 16 1019.0 - 0.0
28/11:00pm 10.6 6.8 9.2 91 0.7 WNW 19 28 10 15 1019.1 1019.1 0.0
28/10:30pm 10.8 7.0 9.1 89 0.8 WNW 19 28 10 15 1019.3 - 0.0
28/10:00pm 10.8 7.3 8.9 88 0.9 WNW 17 30 9 16 1019.4 1019.4 0.0
28/09:30pm 11.0 7.5 8.9 87 1.0 WNW 17 26 9 14 1019.5 - 0.0
28/09:00pm 11.2 8.5 8.9 86 1.1 WNW 13 22 7 12 1019.4 1019.4 0.0
28/08:30pm 11.5 8.4 8.7 83 1.4 WNW 15 24 8 13 1019.2 - 0.0
28/08:00pm 12.0 8.9 8.8 81 1.6 WNW 15 20 8 11 1019.3 1019.3 0.0
28/07:30pm 11.9 9.8 8.4 79 1.7 WNW 9 13 5 7 1019.0 - 0.0
28/07:00pm 12.6 9.7 8.3 75 2.1 WNW 13 19 7 10 1018.9 1018.9 0.0
28/06:30pm 13.3 10.1 8.6 73 2.4 WNW 15 24 8 13 1018.6 - 0.0
28/06:00pm 13.3 10.5 8.4 72 2.4 W 13 20 7 11 1018.4 1018.4 0.0
28/05:30pm 14.2 10.6 8.4 68 2.9 WNW 17 24 9 13 1018.0 - 0.0
28/05:00pm 14.7 11.4 8.0 64 3.3 WNW 15 22 8 12 1017.7 1017.7 0.0
28/04:30pm 15.5 11.2 8.0 61 3.8 W 20 32 11 17 1017.7 - 0.0
28/04:00pm 16.3 11.3 8.0 58 4.2 W 24 39 13 21 1017.7 1017.7 0.0
28/03:30pm 16.6 10.8 8.1 57 4.3 W 28 39 15 21 1017.3 - 0.0
28/03:00pm 16.2 10.4 7.9 58 4.2 W 28 39 15 21 1017.2 1017.2 0.0
28/02:30pm 17.0 11.2 7.9 55 4.6 W 28 41 15 22 1016.9 - 0.0
28/02:00pm 17.8 12.1 8.4 54 4.8 WNW 28 43 15 23 1016.5 1016.5 0.0
28/01:48pm 18.1 12.4 8.4 53 5.0 W 28 46 15 25 1016.6 - 0.0
28/01:30pm 17.0 10.4 7.6 54 4.7 W 32 50 17 27 1016.5 - 0.0
28/01:12pm 16.6 10.7 7.3 54 4.6 WNW 28 46 15 25 1016.6 - 0.0
28/01:00pm 17.0 10.8 7.9 55 4.6 WNW 30 44 16 24 1016.8 1016.8 0.0
28/12:30pm 16.8 11.0 8.0 56 4.5 WNW 28 41 15 22 1017.1 - 0.0
28/12:15pm 16.0 9.3 7.5 57 4.2 W 32 56 17 30 1017.4 - 0.0
28/12:00pm 16.1 10.3 7.8 58 4.2 WNW 28 43 15 23 1017.7 1017.7 0.0
28/11:30am 15.4 8.9 6.7 56 4.3 W 30 44 16 24 1018.3 - 0.0
28/11:06am 15.4 9.2 7.7 60 3.8 W 30 56 16 30 1018.6 - 0.0
28/11:00am 15.1 8.4 7.4 60 3.8 W 32 44 17 24 1018.6 1018.6 0.0
28/10:30am 14.4 9.1 8.6 68 2.9 W 26 43 14 23 1018.8 - 0.0
28/10:00am 13.6 9.3 9.5 76 2.1 WNW 22 37 12 20 1018.7 1018.7 0.0
28/09:30am 12.7 8.4 9.3 80 1.7 WNW 22 41 12 22 1018.7 - 0.0
28/09:00am 11.9 7.2 9.3 84 1.3 NW 24 35 13 19 1018.6 1018.6 0.0
28/08:30am 11.0 6.3 9.4 90 0.8 NW 24 41 13 22 1018.5 - 0.0
28/08:00am 9.7 5.8 9.4 98 0.1 NW 20 33 11 18 1017.9 1017.9 0.0
28/07:30am 8.8 4.9 8.8 100 0.0 NW 19 28 10 15 1017.8 - 0.0

Other Formats:

Comma delimited format used in spreadsheet applications
http://www.bom.gov.au/fwo/IDW60801/IDW60801.95635.axf

JavaScript Object Notation format (JSON) in row-major order
http://www.bom.gov.au/fwo/IDW60801/IDW60801.95635.json